createdAt,value
2023-09-23T00:00:14.505Z,62.71
2023-09-23T00:01:17.610Z,62.80
2023-09-23T00:02:21.101Z,62.85
2023-09-23T00:03:26.086Z,62.99
2023-09-23T00:04:31.856Z,63.05
2023-09-23T00:05:38.264Z,63.16
2023-09-23T00:06:41.224Z,63.18
2023-09-23T00:07:45.458Z,63.19
2023-09-23T00:08:48.532Z,63.26
2023-09-23T00:09:53.583Z,63.39
2023-09-23T00:10:56.502Z,63.42
2023-09-23T00:11:59.426Z,63.35
2023-09-23T00:13:02.793Z,63.38
2023-09-23T00:14:08.274Z,63.46
2023-09-23T00:15:13.380Z,63.50
2023-09-23T00:16:19.222Z,63.42
2023-09-23T00:17:22.211Z,63.23
2023-09-23T00:18:25.319Z,63.22
2023-09-23T00:19:28.955Z,63.21
2023-09-23T00:20:31.876Z,62.84
2023-09-23T00:21:34.840Z,62.57
2023-09-23T00:22:40.333Z,62.74
2023-09-23T00:23:43.252Z,63.01
2023-09-23T00:24:47.387Z,63.36
2023-09-23T00:25:51.503Z,63.45
2023-09-23T00:26:58.291Z,63.67
2023-09-23T00:28:01.192Z,63.69
2023-09-23T00:29:04.054Z,63.75
2023-09-23T00:30:07.625Z,63.76
2023-09-23T00:31:15.117Z,63.80
2023-09-23T00:32:19.736Z,63.95
2023-09-23T00:33:22.839Z,64.07
2023-09-23T00:34:25.851Z,64.16
2023-09-23T00:35:30.664Z,64.21
2023-09-23T00:36:33.577Z,64.31
2023-09-23T00:37:36.460Z,64.52
2023-09-23T00:38:40.219Z,64.59
2023-09-23T00:39:44.382Z,64.63
2023-09-23T00:40:47.575Z,64.75
2023-09-23T00:42:12.690Z,64.85
2023-09-23T00:43:15.685Z,64.97
2023-09-23T00:45:36.199Z,65.04
2023-09-23T00:46:40.325Z,65.01
2023-09-23T00:47:48.213Z,64.97
2023-09-23T00:48:52.753Z,64.97
2023-09-23T00:49:55.973Z,65.00
2023-09-23T00:50:59.312Z,64.98
2023-09-23T00:52:05.259Z,64.91
2023-09-23T00:53:08.541Z,64.90
2023-09-23T00:54:11.837Z,64.98
2023-09-23T00:55:15.233Z,64.93
2023-09-23T00:56:20.802Z,64.89
2023-09-23T00:57:23.806Z,64.84
2023-09-23T00:58:28.528Z,64.86
2023-09-23T00:59:32.371Z,65.06
2023-09-23T01:00:38.550Z,65.15
2023-09-23T01:01:44.032Z,65.21
2023-09-23T01:02:49.597Z,65.26
2023-09-23T01:03:52.674Z,65.22
2023-09-23T01:04:57.944Z,65.20
2023-09-23T01:06:06.397Z,65.17
2023-09-23T01:07:09.327Z,65.22
2023-09-23T01:08:30.892Z,65.18
2023-09-23T01:09:35.706Z,65.17
2023-09-23T01:10:38.576Z,65.28
2023-09-23T01:11:41.710Z,65.36
2023-09-23T01:12:45.340Z,65.41
2023-09-23T01:13:52.738Z,65.45
2023-09-23T01:15:00.700Z,65.56
2023-09-23T01:16:08.895Z,65.65
2023-09-23T01:17:12.660Z,65.65
2023-09-23T01:18:16.067Z,65.51
2023-09-23T01:19:18.981Z,65.50
2023-09-23T01:20:23.272Z,65.55
2023-09-23T01:21:26.202Z,65.59
2023-09-23T01:22:29.903Z,65.83
2023-09-23T01:23:36.783Z,65.80
2023-09-23T01:24:39.930Z,65.80
2023-09-23T01:25:43.270Z,65.76
2023-09-23T01:26:53.971Z,65.82
2023-09-23T01:27:56.891Z,65.97
2023-09-23T01:28:59.847Z,66.11
2023-09-23T01:30:07.357Z,66.04
2023-09-23T01:31:10.659Z,65.90
2023-09-23T01:32:37.590Z,65.59
2023-09-23T01:33:41.467Z,65.72
2023-09-23T01:34:44.429Z,65.42
2023-09-23T01:35:48.219Z,65.43
2023-09-23T01:36:51.231Z,65.55
2023-09-23T01:37:54.252Z,65.84
2023-09-23T01:38:57.152Z,65.88
2023-09-23T01:40:01.129Z,65.48
2023-09-23T01:41:04.371Z,65.27
2023-09-23T01:42:07.340Z,65.17
2023-09-23T01:43:13.212Z,64.95
2023-09-23T01:44:16.926Z,64.84
2023-09-23T01:45:21.604Z,64.74
2023-09-23T01:46:24.503Z,64.76
2023-09-23T01:47:28.107Z,64.78
2023-09-23T01:48:32.273Z,64.93
2023-09-23T01:49:35.704Z,64.75
2023-09-23T01:50:38.690Z,64.56
2023-09-23T01:51:41.692Z,64.46
2023-09-23T01:52:44.692Z,64.45
2023-09-23T01:53:47.686Z,64.46
2023-09-23T01:54:50.736Z,63.91
2023-09-23T01:55:54.562Z,63.95
2023-09-23T01:56:57.422Z,64.01
2023-09-23T01:58:00.274Z,64.24
2023-09-23T01:59:03.262Z,64.59
2023-09-23T02:00:07.419Z,64.43
2023-09-23T02:01:10.391Z,64.17
2023-09-23T02:02:13.783Z,64.19
2023-09-23T02:03:17.688Z,64.50
2023-09-23T02:04:20.607Z,64.62
2023-09-23T02:05:29.574Z,64.70
2023-09-23T02:06:36.764Z,64.84
2023-09-23T02:07:41.683Z,64.74
2023-09-23T02:08:44.810Z,64.69
2023-09-23T02:09:50.584Z,64.61
2023-09-23T02:10:54.689Z,64.62
2023-09-23T02:11:57.659Z,64.79
2023-09-23T02:13:01.211Z,64.58
2023-09-23T02:14:04.264Z,64.27
2023-09-23T02:15:08.822Z,64.25
2023-09-23T02:16:12.002Z,64.44
2023-09-23T02:17:15.170Z,64.19
2023-09-23T02:18:18.241Z,64.13
2023-09-23T02:19:22.644Z,63.99
2023-09-23T02:20:25.548Z,64.00
2023-09-23T02:21:32.788Z,63.93
2023-09-23T02:22:35.696Z,64.33
2023-09-23T02:23:38.505Z,64.36
2023-09-23T02:24:42.586Z,64.39
2023-09-23T02:25:45.473Z,64.55
2023-09-23T02:26:48.562Z,64.70
2023-09-23T02:27:51.694Z,64.94
2023-09-23T02:28:54.602Z,65.19
2023-09-23T02:29:57.527Z,65.65
2023-09-23T02:31:00.379Z,65.60
2023-09-23T02:32:03.379Z,65.62
2023-09-23T02:33:06.781Z,65.75
2023-09-23T02:34:12.588Z,65.93
2023-09-23T02:35:17.798Z,66.16
2023-09-23T02:36:20.734Z,66.63
2023-09-23T02:37:23.859Z,66.43
2023-09-23T02:38:26.743Z,66.49
2023-09-23T02:39:29.592Z,66.88
2023-09-23T02:40:33.679Z,66.87
2023-09-23T02:41:36.612Z,67.03
2023-09-23T02:42:50.492Z,67.11
2023-09-23T02:43:55.189Z,67.03
2023-09-23T02:44:59.262Z,67.03
2023-09-23T02:46:05.262Z,67.16
2023-09-23T02:47:08.370Z,67.40
2023-09-23T02:48:11.358Z,67.65
2023-09-23T02:49:18.093Z,67.82
2023-09-23T02:50:21.166Z,68.32
2023-09-23T02:51:24.074Z,68.42
2023-09-23T02:52:27.681Z,68.38
2023-09-23T02:53:33.046Z,68.23
2023-09-23T02:54:35.927Z,68.16
2023-09-23T02:55:40.173Z,68.01
2023-09-23T02:56:43.065Z,67.89
2023-09-23T02:57:49.193Z,66.85
2023-09-23T02:58:54.440Z,66.89
2023-09-23T02:59:59.770Z,66.92
2023-09-23T03:01:06.978Z,66.98
2023-09-23T03:02:10.916Z,67.20
2023-09-23T03:03:21.625Z,67.33
2023-09-23T03:04:27.820Z,67.16
2023-09-23T03:05:34.346Z,66.86
2023-09-23T03:06:40.807Z,67.14
2023-09-23T03:07:43.774Z,67.23
2023-09-23T03:08:50.492Z,67.31
2023-09-23T03:09:58.069Z,67.60
2023-09-23T03:11:05.412Z,67.87
2023-09-23T03:12:08.392Z,67.74
2023-09-23T03:13:13.801Z,67.93
2023-09-23T03:14:20.666Z,68.00
2023-09-23T03:15:30.323Z,68.08
2023-09-23T03:16:33.753Z,68.24
2023-09-23T03:17:39.777Z,68.35
2023-09-23T03:19:12.888Z,68.28
2023-09-23T03:20:19.441Z,69.31
2023-09-23T03:21:22.422Z,69.26
2023-09-23T03:22:25.584Z,69.27
2023-09-23T03:23:29.071Z,68.28
2023-09-23T03:24:32.403Z,67.75
2023-09-23T03:25:35.422Z,67.94
2023-09-23T03:26:38.569Z,68.09
2023-09-23T03:27:42.352Z,68.26
2023-09-23T03:28:45.409Z,68.51
2023-09-23T03:29:52.081Z,68.49
2023-09-23T03:31:02.086Z,68.54
2023-09-23T03:32:05.183Z,68.35
2023-09-23T03:33:10.105Z,68.11
2023-09-23T03:34:15.656Z,67.93
2023-09-23T03:35:26.462Z,67.92
2023-09-23T03:36:29.371Z,67.99
2023-09-23T03:37:35.048Z,67.93
2023-09-23T03:38:37.898Z,68.04
2023-09-23T03:39:43.361Z,68.12
2023-09-23T03:40:57.783Z,68.26
2023-09-23T03:42:00.762Z,68.37
2023-09-23T03:43:03.681Z,68.29
2023-09-23T03:44:12.136Z,68.16
2023-09-23T03:45:15.109Z,68.38
2023-09-23T03:46:19.364Z,68.61
2023-09-23T03:47:22.316Z,68.63
2023-09-23T03:48:25.534Z,68.38
2023-09-23T03:49:29.084Z,68.76
2023-09-23T03:50:35.081Z,68.67
2023-09-23T03:51:39.444Z,68.58
2023-09-23T03:52:43.392Z,68.60
2023-09-23T03:53:46.670Z,68.56
2023-09-23T03:54:51.667Z,68.58
2023-09-23T03:55:57.035Z,68.73
2023-09-23T03:57:00.069Z,68.60
2023-09-23T03:58:04.222Z,68.56
2023-09-23T03:59:08.424Z,68.58
2023-09-23T04:00:18.680Z,68.53
2023-09-23T04:01:22.502Z,68.74
2023-09-23T04:02:25.402Z,68.63
2023-09-23T04:03:28.381Z,68.54
2023-09-23T04:04:31.303Z,68.48
2023-09-23T04:05:34.216Z,68.78
2023-09-23T04:06:37.097Z,68.91
2023-09-23T04:07:48.898Z,68.77
2023-09-23T04:08:52.201Z,68.73
2023-09-23T04:09:55.126Z,68.87
2023-09-23T04:10:58.244Z,68.81
2023-09-23T04:12:02.673Z,69.08
2023-09-23T04:13:05.736Z,69.11
2023-09-23T04:14:08.805Z,69.24
2023-09-23T04:15:12.132Z,69.41
2023-09-23T04:16:15.544Z,69.86
2023-09-23T04:17:18.577Z,69.77
2023-09-23T04:18:21.609Z,70.08
2023-09-23T04:19:24.589Z,70.47
2023-09-23T04:20:28.203Z,70.57
2023-09-23T04:21:32.604Z,70.73
2023-09-23T04:22:35.622Z,70.80
2023-09-23T04:23:38.584Z,70.93
2023-09-23T04:24:41.457Z,70.97
2023-09-23T04:25:44.702Z,71.02
2023-09-23T04:26:47.552Z,71.12
2023-09-23T04:27:51.658Z,71.07
2023-09-23T04:28:54.637Z,71.17
2023-09-23T04:29:57.532Z,71.47
2023-09-23T04:31:00.424Z,71.95
2023-09-23T04:32:03.429Z,71.95
2023-09-23T04:33:06.917Z,71.99
2023-09-23T04:34:09.912Z,72.12
2023-09-23T04:35:23.581Z,72.43
2023-09-23T04:36:26.493Z,72.59
2023-09-23T04:37:29.843Z,72.95
2023-09-23T04:38:33.431Z,73.37
2023-09-23T04:39:36.995Z,73.76
2023-09-23T04:40:39.989Z,73.68
2023-09-23T04:41:43.707Z,73.84
2023-09-23T04:42:46.619Z,73.78
2023-09-23T04:43:50.363Z,73.84
2023-09-23T04:44:53.360Z,73.78
2023-09-23T04:45:56.244Z,74.16
2023-09-23T04:46:59.148Z,74.36
2023-09-23T04:48:03.494Z,74.42
2023-09-23T04:49:06.931Z,74.42
2023-09-23T04:50:14.451Z,74.74
2023-09-23T04:51:19.646Z,74.72
2023-09-23T04:52:23.205Z,74.67
2023-09-23T04:53:27.125Z,75.00
2023-09-23T04:54:30.018Z,74.93
2023-09-23T04:55:32.900Z,74.95
2023-09-23T04:56:35.804Z,74.97
2023-09-23T04:57:38.768Z,75.05
2023-09-23T04:58:41.688Z,75.00
2023-09-23T04:59:44.572Z,75.25
2023-09-23T05:00:47.476Z,75.17
2023-09-23T05:01:50.413Z,75.11
2023-09-23T05:02:54.454Z,74.98
2023-09-23T05:03:58.015Z,74.85
2023-09-23T05:05:01.034Z,74.76
2023-09-23T05:06:03.992Z,74.65
2023-09-23T05:07:06.866Z,74.63
2023-09-23T05:08:12.020Z,74.62
2023-09-23T05:09:14.915Z,74.51
2023-09-23T05:10:17.994Z,74.44
2023-09-23T05:11:20.893Z,74.43
2023-09-23T05:12:24.609Z,74.45
2023-09-23T05:13:27.494Z,74.61
2023-09-23T05:14:30.342Z,74.52
2023-09-23T05:15:33.293Z,74.60
2023-09-23T05:16:36.363Z,74.50
2023-09-23T05:17:40.020Z,74.42
2023-09-23T05:18:43.659Z,74.36
2023-09-23T05:19:50.217Z,74.36
2023-09-23T05:20:53.218Z,74.36
2023-09-23T05:21:56.415Z,74.20
2023-09-23T05:22:59.408Z,74.15
2023-09-23T05:24:02.957Z,74.09
2023-09-23T05:25:08.267Z,74.15
2023-09-23T05:26:11.328Z,74.06
2023-09-23T05:27:14.210Z,73.91
2023-09-23T05:28:17.075Z,73.88
2023-09-23T05:29:20.030Z,73.89
2023-09-23T05:30:24.311Z,73.83
2023-09-23T05:31:27.923Z,73.83
2023-09-23T05:32:30.908Z,73.78
2023-09-23T05:33:33.816Z,73.72
2023-09-23T05:34:36.683Z,73.68
2023-09-23T05:35:40.537Z,73.65
2023-09-23T05:36:44.100Z,73.64
2023-09-23T05:37:48.468Z,73.64
2023-09-23T05:38:51.577Z,73.61
2023-09-23T05:39:54.526Z,73.55
2023-09-23T05:40:57.449Z,73.47
2023-09-23T05:42:18.311Z,73.49
2023-09-23T05:43:21.146Z,73.55
2023-09-23T05:44:24.753Z,73.51
2023-09-23T05:45:27.768Z,73.61
2023-09-23T05:46:30.739Z,73.69
2023-09-23T05:47:33.780Z,73.78
2023-09-23T05:48:37.266Z,73.77
2023-09-23T05:49:41.298Z,73.80
2023-09-23T05:50:44.238Z,73.82
2023-09-23T05:51:47.898Z,73.82
2023-09-23T05:52:51.900Z,73.90
2023-09-23T05:53:54.843Z,73.88
2023-09-23T05:54:57.735Z,73.96
2023-09-23T05:56:00.807Z,74.01
2023-09-23T05:57:04.554Z,74.02
2023-09-23T05:58:07.452Z,74.14
2023-09-23T05:59:11.373Z,74.26
2023-09-23T06:00:18.102Z,74.48
2023-09-23T06:01:21.033Z,74.62
2023-09-23T06:02:24.639Z,74.71
2023-09-23T06:03:27.677Z,74.88
2023-09-23T06:04:31.986Z,75.12
2023-09-23T06:05:34.893Z,75.30
2023-09-23T06:06:40.831Z,75.36
2023-09-23T06:07:43.922Z,75.41
2023-09-23T06:08:50.385Z,75.46
2023-09-23T06:09:53.455Z,75.57
2023-09-23T06:11:02.859Z,75.81
2023-09-23T06:12:06.039Z,75.77
2023-09-23T06:13:09.920Z,74.88
2023-09-23T06:14:14.194Z,74.85
2023-09-23T06:15:17.495Z,74.63
2023-09-23T06:16:20.438Z,74.63
2023-09-23T06:17:23.393Z,74.54
2023-09-23T06:18:26.351Z,74.56
2023-09-23T06:19:29.455Z,74.42
2023-09-23T06:20:32.467Z,74.00
2023-09-23T06:21:36.050Z,73.92
2023-09-23T06:22:39.007Z,73.83
2023-09-23T06:23:41.906Z,73.92
2023-09-23T06:24:44.839Z,73.98
2023-09-23T06:25:57.739Z,73.96
2023-09-23T06:27:00.659Z,74.02
2023-09-23T06:28:03.518Z,74.09
2023-09-23T06:29:07.304Z,74.14
2023-09-23T06:30:10.621Z,74.19
2023-09-23T06:31:13.652Z,74.21
2023-09-23T06:32:16.663Z,74.16
2023-09-23T06:33:19.555Z,74.25
2023-09-23T06:34:22.490Z,74.37
2023-09-23T06:35:25.453Z,74.58
2023-09-23T06:36:28.750Z,74.75
2023-09-23T06:37:31.673Z,74.81
2023-09-23T06:38:35.043Z,74.85
2023-09-23T06:39:38.317Z,74.96
2023-09-23T06:40:41.220Z,74.89
2023-09-23T06:41:44.180Z,74.73
2023-09-23T06:42:47.340Z,74.77
2023-09-23T06:43:50.229Z,74.92
2023-09-23T06:44:53.194Z,74.98
2023-09-23T06:46:00.010Z,74.94
2023-09-23T06:47:03.923Z,74.88
2023-09-23T06:48:07.479Z,74.80
2023-09-23T06:49:10.552Z,74.98
2023-09-23T06:50:13.495Z,74.89
2023-09-23T06:51:16.425Z,74.88
2023-09-23T06:52:19.363Z,74.92
2023-09-23T06:53:22.328Z,74.88
2023-09-23T06:54:25.264Z,74.87
2023-09-23T06:55:28.285Z,74.87
2023-09-23T06:56:31.196Z,74.96
2023-09-23T06:57:34.442Z,75.06
2023-09-23T06:58:37.305Z,75.20
2023-09-23T06:59:40.258Z,75.32
2023-09-23T07:00:43.263Z,75.35
2023-09-23T07:01:46.192Z,75.33
2023-09-23T07:02:49.269Z,75.36
2023-09-23T07:03:52.478Z,75.41
2023-09-23T07:04:55.601Z,75.37
2023-09-23T07:05:58.519Z,75.49
2023-09-23T07:07:01.348Z,75.56
2023-09-23T07:08:04.369Z,75.57
2023-09-23T07:09:07.479Z,75.63
2023-09-23T07:10:12.308Z,75.64
2023-09-23T07:11:16.223Z,75.75
2023-09-23T07:12:19.147Z,75.88
2023-09-23T07:13:22.053Z,75.86
2023-09-23T07:14:25.018Z,75.63
2023-09-23T07:15:28.129Z,75.61
2023-09-23T07:16:31.090Z,75.66
2023-09-23T07:17:34.364Z,75.87
2023-09-23T07:18:37.522Z,75.88
2023-09-23T07:19:41.009Z,76.11
2023-09-23T07:20:45.207Z,76.15
2023-09-23T07:21:48.228Z,76.14
2023-09-23T07:22:51.161Z,76.16
2023-09-23T07:23:54.108Z,76.30
2023-09-23T07:24:57.048Z,76.28
2023-09-23T07:25:59.990Z,76.28
2023-09-23T07:27:02.921Z,76.37
2023-09-23T07:28:06.226Z,76.39
2023-09-23T07:29:09.173Z,76.38
2023-09-23T07:30:12.631Z,76.43
2023-09-23T07:31:16.506Z,76.47
2023-09-23T07:32:19.490Z,76.55
2023-09-23T07:33:22.407Z,76.54
2023-09-23T07:34:25.346Z,76.54
2023-09-23T07:35:35.236Z,76.36
2023-09-23T07:36:38.273Z,76.28
2023-09-23T07:37:42.484Z,76.26
2023-09-23T07:38:46.297Z,76.33
2023-09-23T07:39:49.243Z,76.41
2023-09-23T07:40:52.220Z,76.64
2023-09-23T07:41:55.127Z,76.66
2023-09-23T07:42:58.454Z,76.74
2023-09-23T07:44:01.659Z,76.72
2023-09-23T07:45:04.625Z,76.74
2023-09-23T07:46:07.952Z,76.71
2023-09-23T07:47:10.973Z,76.63
2023-09-23T07:48:13.932Z,76.53
2023-09-23T07:49:16.890Z,76.54
2023-09-23T07:50:19.912Z,76.76
2023-09-23T07:51:22.920Z,76.75
2023-09-23T07:52:25.818Z,76.73
2023-09-23T07:53:28.857Z,76.65
2023-09-23T07:54:31.814Z,76.37
2023-09-23T07:55:34.718Z,76.42
2023-09-23T07:56:37.584Z,76.39
2023-09-23T07:57:40.505Z,76.45
2023-09-23T07:58:43.544Z,76.55
2023-09-23T07:59:46.526Z,76.64
2023-09-23T08:00:49.457Z,76.45
2023-09-23T08:01:52.557Z,76.30
2023-09-23T08:02:55.806Z,76.41
2023-09-23T08:03:58.924Z,76.67
2023-09-23T08:05:01.835Z,76.99
2023-09-23T08:06:04.965Z,77.06
2023-09-23T08:07:08.943Z,77.29
2023-09-23T08:08:12.706Z,77.36
2023-09-23T08:09:15.585Z,77.51
2023-09-23T08:10:19.069Z,78.20
2023-09-23T08:11:21.988Z,78.10
2023-09-23T08:12:24.954Z,78.02
2023-09-23T08:13:28.622Z,77.95
2023-09-23T08:14:31.896Z,77.91
2023-09-23T08:15:34.799Z,78.10
2023-09-23T08:16:37.693Z,78.03
2023-09-23T08:17:42.084Z,77.81
2023-09-23T08:18:45.027Z,77.75
2023-09-23T08:19:48.108Z,77.84
2023-09-23T08:21:00.523Z,77.97
2023-09-23T08:22:03.594Z,78.31
2023-09-23T08:23:06.707Z,78.50
2023-09-23T08:24:10.405Z,78.52
2023-09-23T08:25:14.583Z,78.55
2023-09-23T08:26:18.033Z,78.65
2023-09-23T08:27:20.949Z,79.07
2023-09-23T08:28:23.907Z,79.24
2023-09-23T08:29:27.036Z,79.76
2023-09-23T08:30:29.981Z,79.76
2023-09-23T08:31:32.834Z,79.58
2023-09-23T08:32:35.819Z,79.50
2023-09-23T08:33:38.772Z,79.66
2023-09-23T08:34:41.957Z,79.66
2023-09-23T08:35:49.885Z,79.77
2023-09-23T08:36:53.820Z,79.73
2023-09-23T08:37:56.741Z,79.62
2023-09-23T08:38:59.627Z,79.64
2023-09-23T08:40:02.795Z,79.93
2023-09-23T08:41:08.511Z,80.51
2023-09-23T08:42:12.340Z,80.64
2023-09-23T08:43:15.412Z,81.08
2023-09-23T08:44:22.125Z,81.01
2023-09-23T08:45:28.929Z,81.04
2023-09-23T08:46:33.865Z,80.92
2023-09-23T08:47:40.381Z,80.63
2023-09-23T08:48:43.686Z,80.38
2023-09-23T08:49:51.759Z,80.99
2023-09-23T08:50:56.118Z,80.77
2023-09-23T08:51:59.954Z,80.40
2023-09-23T08:53:06.976Z,80.18
2023-09-23T08:54:11.512Z,80.17
2023-09-23T08:55:17.569Z,80.36
2023-09-23T08:56:21.162Z,80.57
2023-09-23T08:57:24.537Z,81.02
2023-09-23T08:58:27.446Z,81.03
2023-09-23T08:59:30.502Z,80.78
2023-09-23T09:00:33.863Z,80.65
2023-09-23T09:01:44.118Z,80.56
2023-09-23T09:02:47.082Z,80.40
2023-09-23T09:03:52.938Z,80.36
2023-09-23T09:04:57.404Z,80.13
2023-09-23T09:06:01.661Z,80.17
2023-09-23T09:07:05.150Z,80.20
2023-09-23T09:08:11.776Z,80.18
2023-09-23T09:09:14.633Z,80.23
2023-09-23T09:10:17.561Z,80.78
2023-09-23T09:11:26.171Z,80.88
2023-09-23T09:12:29.398Z,80.93
2023-09-23T09:13:35.317Z,81.12
2023-09-23T09:14:38.554Z,81.07
2023-09-23T09:15:41.522Z,80.84
2023-09-23T09:16:44.801Z,80.63
2023-09-23T09:17:48.012Z,80.31
2023-09-23T09:18:54.080Z,79.44
2023-09-23T09:19:57.056Z,79.42
2023-09-23T09:21:00.763Z,79.21
2023-09-23T09:22:04.458Z,79.14
2023-09-23T09:23:07.828Z,79.16
2023-09-23T09:24:11.524Z,79.13
2023-09-23T09:25:14.504Z,79.15
2023-09-23T09:26:20.573Z,79.15
2023-09-23T09:27:24.525Z,79.16
2023-09-23T09:28:27.668Z,79.19
2023-09-23T09:29:32.421Z,79.14
2023-09-23T09:30:35.601Z,79.15
2023-09-23T09:31:40.897Z,79.11
2023-09-23T09:32:45.564Z,79.06
2023-09-23T09:33:52.923Z,79.26
2023-09-23T09:34:57.018Z,79.26
2023-09-23T09:35:59.908Z,78.90
2023-09-23T09:37:05.849Z,78.55
2023-09-23T09:38:18.255Z,78.41
2023-09-23T09:39:28.151Z,78.41
2023-09-23T09:40:31.944Z,78.42
2023-09-23T09:41:49.398Z,78.45
2023-09-23T09:42:56.784Z,78.51
2023-09-23T09:44:04.757Z,78.44
2023-09-23T09:45:12.278Z,78.18
2023-09-23T09:46:16.340Z,78.08
2023-09-23T09:47:20.281Z,78.11
2023-09-23T09:48:28.641Z,77.90
2023-09-23T09:49:31.686Z,77.51
2023-09-23T09:50:36.759Z,77.46
2023-09-23T09:51:42.698Z,77.33
2023-09-23T09:52:48.961Z,77.25
2023-09-23T09:53:53.161Z,76.97
2023-09-23T09:54:57.949Z,77.03
2023-09-23T09:56:01.314Z,77.01
2023-09-23T09:57:04.547Z,77.01
2023-09-23T09:58:07.597Z,76.79
2023-09-23T09:59:10.563Z,76.68
2023-09-23T10:00:27.552Z,76.59
2023-09-23T10:01:31.184Z,76.53
2023-09-23T10:02:34.651Z,76.44
2023-09-23T10:03:43.310Z,76.01
2023-09-23T10:04:53.803Z,75.00
2023-09-23T10:06:02.847Z,74.99
2023-09-23T10:07:09.915Z,74.08
2023-09-23T10:08:15.694Z,74.27
2023-09-23T10:09:20.361Z,74.96
2023-09-23T10:10:34.181Z,75.18
2023-09-23T10:11:37.248Z,75.52
2023-09-23T10:12:40.162Z,75.66
2023-09-23T10:13:44.936Z,75.73
2023-09-23T10:14:58.895Z,75.20
2023-09-23T10:16:14.174Z,75.27
2023-09-23T10:17:17.088Z,75.57
2023-09-23T10:18:20.872Z,75.30
2023-09-23T10:19:44.120Z,74.81
2023-09-23T10:20:53.330Z,74.91
2023-09-23T10:22:07.967Z,74.76
2023-09-23T10:23:13.023Z,74.52
2023-09-23T10:24:22.831Z,73.73
2023-09-23T10:25:25.790Z,73.75
2023-09-23T10:26:31.448Z,73.44
2023-09-23T10:27:34.875Z,73.82
2023-09-23T10:28:37.744Z,73.87
2023-09-23T10:29:50.077Z,74.03
2023-09-23T10:30:59.808Z,74.29
2023-09-23T10:32:12.482Z,74.62
2023-09-23T10:33:16.671Z,74.74
2023-09-23T10:34:22.645Z,72.82
2023-09-23T10:35:28.626Z,72.44
2023-09-23T10:36:31.841Z,71.71
2023-09-23T10:37:35.897Z,71.46
2023-09-23T10:38:40.736Z,72.24
2023-09-23T10:39:47.063Z,72.61
2023-09-23T10:40:57.560Z,72.98
2023-09-23T10:42:00.468Z,73.36
2023-09-23T10:43:07.452Z,73.62
2023-09-23T10:44:12.346Z,73.67
2023-09-23T10:45:19.410Z,73.30
2023-09-23T10:46:22.381Z,72.95
2023-09-23T10:47:25.400Z,72.95
2023-09-23T10:48:28.517Z,73.22
2023-09-23T10:49:31.642Z,73.21
2023-09-23T10:50:34.613Z,73.05
2023-09-23T10:51:37.626Z,72.90
2023-09-23T10:52:40.818Z,72.74
2023-09-23T10:53:44.535Z,72.79
2023-09-23T10:54:49.674Z,73.02
2023-09-23T10:55:53.919Z,72.94
2023-09-23T10:56:56.872Z,72.95
2023-09-23T10:57:59.812Z,73.17
2023-09-23T10:59:03.430Z,72.90
2023-09-23T11:00:16.720Z,72.62
2023-09-23T11:01:25.214Z,71.81
2023-09-23T11:02:28.323Z,71.84
2023-09-23T11:03:31.949Z,71.82
2023-09-23T11:04:36.112Z,71.68
2023-09-23T11:05:40.700Z,71.60
2023-09-23T11:06:44.083Z,71.75
2023-09-23T11:07:47.110Z,71.80
2023-09-23T11:08:52.080Z,71.98
2023-09-23T11:09:56.425Z,71.92
2023-09-23T11:11:02.577Z,71.92
2023-09-23T11:12:12.271Z,72.15
2023-09-23T11:13:16.098Z,71.99
2023-09-23T11:14:21.971Z,72.07
2023-09-23T11:15:25.067Z,72.18
2023-09-23T11:16:28.071Z,72.44
2023-09-23T11:17:34.830Z,72.42
2023-09-23T11:18:39.058Z,72.43
2023-09-23T11:19:42.014Z,71.44
2023-09-23T11:20:47.684Z,71.48
2023-09-23T11:21:50.642Z,72.01
2023-09-23T11:23:00.378Z,72.07
2023-09-23T11:24:05.801Z,71.87
2023-09-23T11:25:14.292Z,71.67
2023-09-23T11:26:17.438Z,70.53
2023-09-23T11:27:20.306Z,71.05
2023-09-23T11:28:25.441Z,71.60
2023-09-23T11:29:29.908Z,70.81
2023-09-23T11:30:33.909Z,70.21
2023-09-23T11:31:37.028Z,69.67
2023-09-23T11:32:39.984Z,70.01
2023-09-23T11:33:42.882Z,70.22
2023-09-23T11:34:45.756Z,70.73
2023-09-23T11:35:48.698Z,71.30
2023-09-23T11:36:51.547Z,71.59
2023-09-23T11:37:56.687Z,71.49
2023-09-23T11:39:01.958Z,71.73
2023-09-23T11:40:05.908Z,71.49
2023-09-23T11:41:09.332Z,71.38
2023-09-23T11:42:12.931Z,71.40
2023-09-23T11:43:15.792Z,71.46
2023-09-23T11:44:18.707Z,71.61
2023-09-23T11:45:22.653Z,71.83
2023-09-23T11:46:26.704Z,71.83
2023-09-23T11:47:29.718Z,71.94
2023-09-23T11:48:32.947Z,71.75
2023-09-23T11:49:35.876Z,71.81
2023-09-23T11:50:39.585Z,71.70
2023-09-23T11:51:43.917Z,71.85
2023-09-23T11:52:46.834Z,71.99
2023-09-23T11:53:49.789Z,71.88
2023-09-23T11:54:53.023Z,71.70
2023-09-23T11:55:56.332Z,72.05
2023-09-23T11:56:59.169Z,71.82
2023-09-23T11:58:02.808Z,71.28
2023-09-23T11:59:08.761Z,71.29
2023-09-23T12:00:13.237Z,71.48
2023-09-23T12:01:16.214Z,71.29
2023-09-23T12:02:19.111Z,71.11
2023-09-23T12:03:22.396Z,71.26
2023-09-23T12:04:25.435Z,71.54
2023-09-23T12:05:32.197Z,71.60
2023-09-23T12:06:37.542Z,71.92
2023-09-23T12:07:40.963Z,72.35
2023-09-23T12:08:43.882Z,72.28
2023-09-23T12:09:46.821Z,71.71
2023-09-23T12:10:49.720Z,71.61
2023-09-23T12:11:53.456Z,71.75
2023-09-23T12:12:58.721Z,72.05
2023-09-23T12:14:01.596Z,72.91
2023-09-23T12:15:05.131Z,72.81
2023-09-23T12:16:08.039Z,72.91
2023-09-23T12:17:18.605Z,72.28
2023-09-23T12:18:21.666Z,72.44
2023-09-23T12:19:24.534Z,72.72
2023-09-23T12:20:30.029Z,72.67
2023-09-23T12:21:33.152Z,72.57
2023-09-23T12:22:36.030Z,72.65
2023-09-23T12:23:39.423Z,72.62
2023-09-23T12:24:42.354Z,72.47
2023-09-23T12:25:45.652Z,72.35
2023-09-23T12:26:48.576Z,72.05
2023-09-23T12:27:51.533Z,71.71
2023-09-23T12:28:54.431Z,71.26
2023-09-23T12:29:58.198Z,71.40
2023-09-23T12:31:01.050Z,71.82
2023-09-23T12:32:05.107Z,72.01
2023-09-23T12:33:09.236Z,72.22
2023-09-23T12:34:13.144Z,72.33
2023-09-23T12:35:16.186Z,72.32
2023-09-23T12:36:19.495Z,72.24
2023-09-23T12:37:22.392Z,71.95
2023-09-23T12:38:25.369Z,71.95
2023-09-23T12:39:28.681Z,71.90
2023-09-23T12:40:31.576Z,70.96
2023-09-23T12:41:34.475Z,71.22
2023-09-23T12:42:37.444Z,71.30
2023-09-23T12:43:40.307Z,71.51
2023-09-23T12:44:43.948Z,71.56
2023-09-23T12:45:47.069Z,71.02
2023-09-23T12:46:50.317Z,71.22
2023-09-23T12:47:57.950Z,71.31
2023-09-23T12:49:01.530Z,71.54
2023-09-23T12:50:04.822Z,71.76
2023-09-23T12:51:07.981Z,71.76
2023-09-23T12:52:10.899Z,72.25
2023-09-23T12:53:13.815Z,72.55
2023-09-23T12:54:16.768Z,72.02
2023-09-23T12:55:20.281Z,72.08
2023-09-23T12:56:24.253Z,72.06
2023-09-23T12:57:28.240Z,72.51
2023-09-23T12:58:31.175Z,72.52
2023-09-23T12:59:34.174Z,72.48
2023-09-23T13:00:37.159Z,72.76
2023-09-23T13:01:40.636Z,72.66
2023-09-23T13:02:43.741Z,72.60
2023-09-23T13:03:46.939Z,72.47
2023-09-23T13:04:50.025Z,72.57
2023-09-23T13:05:52.882Z,72.34
2023-09-23T13:06:55.805Z,72.62
2023-09-23T13:07:58.675Z,72.98
2023-09-23T13:09:01.592Z,72.89
2023-09-23T13:10:06.247Z,72.45
2023-09-23T13:11:09.182Z,72.18
2023-09-23T13:12:12.138Z,72.48
2023-09-23T13:13:15.512Z,72.38
2023-09-23T13:14:19.258Z,72.28
2023-09-23T13:15:23.877Z,72.26
2023-09-23T13:16:26.768Z,72.30
2023-09-23T13:17:30.550Z,72.27
2023-09-23T13:18:34.046Z,72.39
2023-09-23T13:19:36.910Z,72.15
2023-09-23T13:20:40.170Z,72.50
2023-09-23T13:21:43.471Z,72.16
2023-09-23T13:22:46.517Z,72.58
2023-09-23T13:23:49.515Z,71.95
2023-09-23T13:24:54.144Z,72.10
2023-09-23T13:25:57.433Z,72.22
2023-09-23T13:27:00.297Z,72.51
2023-09-23T13:28:03.211Z,71.86
2023-09-23T13:29:06.216Z,71.95
2023-09-23T13:30:12.079Z,72.02
2023-09-23T13:31:15.075Z,72.10
2023-09-23T13:32:19.807Z,72.05
2023-09-23T13:33:25.455Z,72.15
2023-09-23T13:34:28.742Z,72.13
2023-09-23T13:35:31.755Z,71.82
2023-09-23T13:36:35.233Z,71.54
2023-09-23T13:37:38.920Z,71.67
2023-09-23T13:38:42.039Z,71.62
2023-09-23T13:39:44.999Z,71.48
2023-09-23T13:40:48.061Z,71.90
2023-09-23T13:41:51.057Z,72.20
2023-09-23T13:42:53.974Z,72.43
2023-09-23T13:43:56.899Z,72.63
2023-09-23T13:44:59.993Z,72.62
2023-09-23T13:46:03.248Z,71.57
2023-09-23T13:47:06.513Z,71.75
2023-09-23T13:48:10.814Z,72.05
2023-09-23T13:49:14.172Z,72.44